Time;durP1;ratioP1;P1;durP2;ratioP2;P2;SDS_P1;SDS_P2;PMS_P1;PMS_P2;Temp;Humidity;BMP_temperature;BMP_pressure;BME280_temperature;BME280_humidity;BME280_pressure;Samples;Min_cycle;Max_cycle;Signal;HPM_P1;HPM_P2
2022/12/16 00:01:03;;;;;;;27.73;16.10;;;-2.40;99.90;;;;;;5081570;28;20221;-74
2022/12/16 00:03:30;;;;;;;29.13;17.50;;;-2.40;99.90;;;;;;5080935;28;20261;-74
2022/12/16 00:05:58;;;;;;;32.77;19.17;;;-2.50;99.90;;;;;;5078030;28;20204;-73
2022/12/16 00:08:24;;;;;;;30.03;18.03;;;-2.50;99.90;;;;;;5074938;28;20193;-74
2022/12/16 00:10:56;;;;;;;30.10;17.97;;;-2.50;99.90;;;;;;5074685;28;20660;-72
2022/12/16 00:13:22;;;;;;;31.67;19.40;;;-2.50;99.90;;;;;;5074002;28;20266;-74
2022/12/16 00:15:49;;;;;;;32.27;17.60;;;-2.60;99.90;;;;;;5074171;28;20197;-73
2022/12/16 00:18:18;;;;;;;30.77;18.27;;;-2.60;99.90;;;;;;5074595;28;20200;-73
2022/12/16 00:20:45;;;;;;;31.13;19.00;;;-2.60;99.90;;;;;;5074195;28;20197;-72
2022/12/16 00:23:14;;;;;;;32.70;19.27;;;-2.70;99.90;;;;;;5074275;28;20204;-74
2022/12/16 00:25:42;;;;;;;34.40;19.27;;;-2.70;99.90;;;;;;5074251;28;20200;-73
2022/12/16 00:28:09;;;;;;;33.40;19.80;;;-2.70;99.90;;;;;;5074189;28;20196;-73
2022/12/16 00:30:36;;;;;;;36.90;19.17;;;-2.70;99.90;;;;;;5074143;28;20255;-73
2022/12/16 00:33:03;;;;;;;32.63;19.33;;;-2.70;99.90;;;;;;5074639;28;20212;-72
2022/12/16 00:35:29;;;;;;;28.40;18.10;;;-2.70;99.90;;;;;;5074173;28;20239;-74
2022/12/16 00:37:56;;;;;;;31.13;18.83;;;-2.70;99.90;;;;;;5074299;28;20197;-72
2022/12/16 00:40:25;;;;;;;32.00;18.67;;;-2.70;99.90;;;;;;5074146;28;20254;-72
2022/12/16 00:42:51;;;;;;;33.10;19.87;;;-2.70;99.90;;;;;;5073907;28;20237;-74
2022/12/16 00:45:18;;;;;;;32.30;20.77;;;-2.70;99.90;;;;;;5075019;28;20203;-73
2022/12/16 00:47:45;;;;;;;33.70;19.03;;;-2.60;99.90;;;;;;5075539;28;20204;-74
2022/12/16 00:50:12;;;;;;;33.50;19.57;;;-2.70;99.90;;;;;;5078603;28;20251;-74
2022/12/16 00:52:38;;;;;;;35.37;20.13;;;-2.70;99.90;;;;;;5075832;28;20199;-73
2022/12/16 00:55:06;;;;;;;31.90;19.83;;;-2.70;99.90;;;;;;5074482;28;20645;-73
2022/12/16 00:57:34;;;;;;;32.57;20.73;;;-2.60;99.90;;;;;;5074455;28;20199;-74
2022/12/16 01:00:03;;;;;;;34.97;19.73;;;-2.60;99.90;;;;;;5074929;28;20626;-74
2022/12/16 01:02:29;;;;;;;30.70;20.23;;;-2.70;99.90;;;;;;5075306;28;20657;-73
2022/12/16 01:04:56;;;;;;;32.87;19.20;;;-2.70;99.90;;;;;;5074388;28;20193;-73
2022/12/16 01:07:23;;;;;;;29.67;18.73;;;-2.70;99.90;;;;;;5074543;28;20277;-73
2022/12/16 01:09:49;;;;;;;34.67;19.93;;;-2.70;99.90;;;;;;5074091;28;20573;-74
2022/12/16 01:12:16;;;;;;;31.10;19.50;;;-2.70;99.90;;;;;;5074474;28;20208;-74
2022/12/16 01:14:44;;;;;;;30.87;20.37;;;-2.80;99.90;;;;;;5074922;28;20222;-73
2022/12/16 01:17:11;;;;;;;35.47;20.70;;;-2.80;99.90;;;;;;5074859;28;20196;-73
2022/12/16 01:19:37;;;;;;;30.10;18.77;;;-2.80;99.90;;;;;;5074912;28;20200;-74
2022/12/16 01:22:04;;;;;;;30.33;18.77;;;-2.80;99.90;;;;;;5075073;28;20246;-74
2022/12/16 01:24:30;;;;;;;30.67;18.67;;;-2.70;99.90;;;;;;5080359;28;20193;-74
2022/12/16 01:26:57;;;;;;;34.03;19.20;;;-2.70;99.90;;;;;;5088326;28;20226;-74
2022/12/16 01:29:24;;;;;;;32.80;19.80;;;-2.70;99.90;;;;;;5086099;28;20249;-74
2022/12/16 01:31:52;;;;;;;33.97;19.73;;;-2.70;99.90;;;;;;5087141;28;20238;-73
2022/12/16 01:34:18;;;;;;;32.77;20.23;;;-2.70;99.90;;;;;;5086235;28;20225;-73
2022/12/16 01:36:45;;;;;;;32.57;20.23;;;-2.80;99.90;;;;;;5085810;28;20223;-73
2022/12/16 01:39:12;;;;;;;31.87;19.67;;;-2.80;99.90;;;;;;5084984;28;20201;-74
2022/12/16 01:41:39;;;;;;;35.50;20.17;;;-2.80;99.90;;;;;;5082497;28;20224;-73
2022/12/16 01:44:16;;;;;;;31.30;19.50;;;-2.80;99.90;;;;;;5078654;28;20249;-73
2022/12/16 01:46:44;;;;;;;32.47;19.10;;;-2.80;99.90;;;;;;5079549;28;20272;-73
2022/12/16 01:49:21;;;;;;;30.63;18.57;;;-2.80;99.90;;;;;;5077926;28;20274;-73
2022/12/16 01:51:48;;;;;;;30.00;18.40;;;-2.80;99.90;;;;;;5079280;28;20204;-73
2022/12/16 01:54:19;;;;;;;30.30;19.00;;;-2.80;99.90;;;;;;5079286;28;20203;-73
2022/12/16 01:56:49;;;;;;;29.87;17.87;;;-2.80;99.90;;;;;;5081168;28;20624;-73
2022/12/16 01:59:17;;;;;;;29.40;18.57;;;-2.80;99.90;;;;;;5082492;28;20246;-73
2022/12/16 02:01:44;;;;;;;32.80;19.70;;;-2.80;99.90;;;;;;5081825;28;20218;-74
2022/12/16 02:04:12;;;;;;;33.10;19.43;;;-2.90;99.90;;;;;;5082421;28;20199;-73
2022/12/16 02:06:39;;;;;;;28.37;18.80;;;-2.90;99.90;;;;;;5082476;28;20199;-73
2022/12/16 02:09:09;;;;;;;34.67;19.60;;;-2.90;99.90;;;;;;5081845;28;20231;-73
2022/12/16 02:12:06;;;;;;;33.23;19.40;;;-2.90;99.90;;;;;;5082674;28;20659;-73
2022/12/16 02:14:49;;;;;;;30.00;18.37;;;-2.90;99.90;;;;;;5082604;28;20203;-74
2022/12/16 02:17:24;;;;;;;30.43;19.33;;;-2.90;99.90;;;;;;5082299;28;20203;-74
2022/12/16 02:20:21;;;;;;;29.57;18.00;;;-2.90;99.90;;;;;;5082979;28;20348;-73
2022/12/16 02:23:05;;;;;;;31.37;18.47;;;-3.00;99.90;;;;;;5082077;28;20222;-73
2022/12/16 02:25:58;;;;;;;31.50;17.43;;;-3.00;99.90;;;;;;5083000;28;20229;-73
2022/12/16 02:28:42;;;;;;;29.80;18.33;;;-3.10;99.90;;;;;;5083374;28;20282;-73
2022/12/16 02:31:28;;;;;;;30.67;17.30;;;-3.10;99.90;;;;;;5083587;28;20201;-73
2022/12/16 02:34:08;;;;;;;30.23;17.83;;;-3.10;99.90;;;;;;5083803;28;20201;-73
2022/12/16 02:36:49;;;;;;;31.40;17.30;;;-3.10;99.90;;;;;;5082386;28;20199;-73
2022/12/16 02:39:21;;;;;;;30.43;18.47;;;-3.10;99.90;;;;;;5083903;28;20199;-73
2022/12/16 02:41:54;;;;;;;32.63;19.00;;;-3.10;99.90;;;;;;5082907;28;20222;-73
2022/12/16 02:44:25;;;;;;;32.67;18.47;;;-3.10;99.90;;;;;;5082871;28;20198;-73
2022/12/16 02:46:55;;;;;;;29.43;18.77;;;-3.10;99.90;;;;;;5083393;28;20275;-73
2022/12/16 02:49:46;;;;;;;30.00;18.37;;;-3.10;99.90;;;;;;5084127;28;20248;-73
2022/12/16 02:52:13;;;;;;;30.90;18.60;;;-3.10;99.90;;;;;;5083403;28;20719;-73
2022/12/16 02:54:40;;;;;;;31.73;18.67;;;-3.10;99.90;;;;;;5083299;28;20332;-73
2022/12/16 02:57:16;;;;;;;34.33;20.33;;;-3.10;99.90;;;;;;5082600;28;20213;-73
2022/12/16 02:59:51;;;;;;;28.30;17.57;;;-3.10;99.90;;;;;;5082587;28;20215;-73
2022/12/16 03:02:26;;;;;;;31.43;18.23;;;-3.10;99.90;;;;;;5082396;28;20634;-73
2022/12/16 03:05:00;;;;;;;28.03;17.90;;;-3.10;99.90;;;;;;5082584;28;20646;-73
2022/12/16 03:07:29;;;;;;;29.20;18.37;;;-3.10;99.90;;;;;;5082732;28;20201;-73
2022/12/16 03:09:58;;;;;;;29.33;17.47;;;-3.10;99.90;;;;;;5081673;28;20228;-72
2022/12/16 03:12:25;;;;;;;29.33;17.40;;;-3.10;99.90;;;;;;5081456;28;20267;-74
2022/12/16 03:14:54;;;;;;;31.90;18.60;;;-3.10;99.90;;;;;;5080714;28;20193;-74
2022/12/16 03:17:25;;;;;;;28.07;17.53;;;-3.10;99.90;;;;;;5082827;28;20194;-74
2022/12/16 03:19:58;;;;;;;29.20;17.20;;;-3.10;99.90;;;;;;5080097;28;20198;-74
2022/12/16 03:22:29;;;;;;;26.63;17.20;;;-3.10;99.90;;;;;;5076436;28;20350;-73
2022/12/16 03:24:56;;;;;;;31.30;19.87;;;-3.10;99.90;;;;;;5076262;28;20206;-73
2022/12/16 03:27:28;;;;;;;32.67;18.20;;;-3.10;99.90;;;;;;5076016;28;20257;-73
2022/12/16 03:30:05;;;;;;;30.23;19.03;;;-3.10;99.90;;;;;;5076034;28;20195;-73
2022/12/16 03:32:37;;;;;;;30.53;18.37;;;-3.10;99.90;;;;;;5076393;28;20203;-73
2022/12/16 03:35:12;;;;;;;29.17;17.57;;;-3.00;99.90;;;;;;5075628;28;20204;-73
2022/12/16 03:37:41;;;;;;;30.30;18.63;;;-3.10;99.90;;;;;;5075656;28;20205;-73
2022/12/16 03:40:10;;;;;;;31.30;17.97;;;-3.10;99.90;;;;;;5075331;28;20711;-73
2022/12/16 03:42:38;;;;;;;30.23;18.43;;;-3.10;99.90;;;;;;5075416;28;20314;-74
2022/12/16 03:45:08;;;;;;;27.17;16.40;;;-3.10;99.90;;;;;;5075276;28;20196;-73
2022/12/16 03:47:37;;;;;;;29.23;17.33;;;-3.10;99.90;;;;;;5076105;28;20539;-74
2022/12/16 03:50:04;;;;;;;31.90;17.63;;;-3.10;99.90;;;;;;5075226;28;20203;-73
2022/12/16 03:52:31;;;;;;;30.63;17.63;;;-3.10;99.90;;;;;;5075050;28;20237;-73
2022/12/16 03:54:58;;;;;;;27.23;16.27;;;-3.10;99.90;;;;;;5075265;28;20203;-74
2022/12/16 03:57:25;;;;;;;26.93;15.97;;;-3.10;99.90;;;;;;5074987;28;20210;-73
2022/12/16 03:59:51;;;;;;;29.93;17.83;;;-3.10;99.90;;;;;;5074903;28;20256;-73
2022/12/16 04:02:18;;;;;;;29.07;17.77;;;-3.10;99.90;;;;;;5074661;28;20218;-73
2022/12/16 04:04:46;;;;;;;30.23;17.50;;;-3.10;99.90;;;;;;5074750;28;20255;-73
2022/12/16 04:07:23;;;;;;;29.37;18.53;;;-3.20;99.90;;;;;;5074281;28;20680;-73
2022/12/16 04:09:51;;;;;;;29.10;18.27;;;-3.20;99.90;;;;;;5074723;28;20234;-73
2022/12/16 04:26:17;;;;;;;27.10;17.40;;;-3.10;99.90;;;;;;5074580;28;20226;-73
2022/12/16 04:28:44;;;;;;;29.00;17.77;;;-3.00;99.90;;;;;;5074068;28;20609;-73
2022/12/16 04:31:11;;;;;;;27.63;17.87;;;-3.00;99.90;;;;;;5073986;28;20656;-73
